createdAt,value
2023-04-08T00:00:10.402Z,7.12
2023-04-08T00:02:37.303Z,7.04
2023-04-08T00:05:04.971Z,7.06
2023-04-08T00:07:31.798Z,7.09
2023-04-08T00:09:58.356Z,7.03
2023-04-08T00:12:25.299Z,7.06
2023-04-08T00:14:51.999Z,7.25
2023-04-08T00:17:18.730Z,7.30
2023-04-08T00:19:45.320Z,7.29
2023-04-08T00:22:11.940Z,7.18
2023-04-08T00:24:40.484Z,7.11
2023-04-08T00:27:07.033Z,7.13
2023-04-08T00:29:33.587Z,7.17
2023-04-08T00:32:01.713Z,7.22
2023-04-08T00:34:28.348Z,7.17
2023-04-08T00:36:54.922Z,7.16
2023-04-08T00:39:21.546Z,7.19
2023-04-08T00:41:48.118Z,7.14
2023-04-08T00:44:15.302Z,7.03
2023-04-08T00:46:41.986Z,6.98
2023-04-08T00:49:08.795Z,6.96
2023-04-08T00:51:38.659Z,6.95
2023-04-08T00:54:06.243Z,6.87
2023-04-08T00:56:34.906Z,6.93
2023-04-08T00:59:01.765Z,6.95
2023-04-08T01:01:51.718Z,6.93
2023-04-08T01:04:47.042Z,6.97
2023-04-08T01:07:24.958Z,7.10
2023-04-08T01:10:22.303Z,7.02
2023-04-08T01:12:55.307Z,6.99
2023-04-08T01:15:24.065Z,6.98
2023-04-08T01:17:56.221Z,6.92
2023-04-08T01:20:26.065Z,6.84
2023-04-08T01:23:13.189Z,6.71
2023-04-08T01:25:39.834Z,6.18
2023-04-08T01:28:15.713Z,6.29
2023-04-08T01:30:46.255Z,6.33
2023-04-08T01:33:16.620Z,6.32
2023-04-08T01:35:45.345Z,6.17
2023-04-08T01:38:21.049Z,6.06
2023-04-08T01:40:49.535Z,6.14
2023-04-08T01:43:18.568Z,6.08
2023-04-08T01:45:48.176Z,6.05
2023-04-08T01:48:16.234Z,6.08
2023-04-08T01:50:45.391Z,6.06
2023-04-08T01:53:12.844Z,6.05
2023-04-08T01:55:42.468Z,5.98
2023-04-08T01:58:18.189Z,5.98
2023-04-08T02:00:46.488Z,6.03
2023-04-08T02:03:17.655Z,6.07
2023-04-08T02:05:44.383Z,6.08
2023-04-08T02:08:12.712Z,6.04
2023-04-08T02:10:39.346Z,6.10
2023-04-08T02:13:06.450Z,6.15
2023-04-08T02:15:43.053Z,6.15
2023-04-08T02:18:16.715Z,5.81
2023-04-08T02:21:03.586Z,6.04
2023-04-08T02:23:35.561Z,6.07
2023-04-08T02:26:07.679Z,6.17
2023-04-08T02:28:35.871Z,6.15
2023-04-08T02:31:04.085Z,6.19
2023-04-08T02:33:31.651Z,6.20
2023-04-08T02:35:59.752Z,6.19
2023-04-08T02:38:29.811Z,6.18
2023-04-08T02:40:56.874Z,6.12
2023-04-08T02:43:31.631Z,6.07
2023-04-08T02:46:05.867Z,6.02
2023-04-08T02:48:33.174Z,5.93
2023-04-08T02:50:59.783Z,5.81
2023-04-08T02:53:26.487Z,5.76
2023-04-08T02:55:53.255Z,5.74
2023-04-08T02:58:19.905Z,5.72
2023-04-08T03:00:46.618Z,5.67
2023-04-08T03:03:13.262Z,5.64
2023-04-08T03:05:39.855Z,5.69
2023-04-08T03:08:06.874Z,5.68
2023-04-08T03:10:33.622Z,5.59
2023-04-08T03:13:00.325Z,5.62
2023-04-08T03:15:27.438Z,5.59
2023-04-08T03:17:54.119Z,5.56
2023-04-08T03:20:20.753Z,5.54
2023-04-08T03:22:47.578Z,5.51
2023-04-08T03:25:14.192Z,5.43
2023-04-08T03:27:40.805Z,5.30
2023-04-08T03:30:08.516Z,5.24
2023-04-08T03:32:35.367Z,5.30
2023-04-08T03:35:01.979Z,5.27
2023-04-08T03:37:28.525Z,5.13
2023-04-08T03:39:56.137Z,5.07
2023-04-08T03:42:22.943Z,4.88
2023-04-08T03:44:49.641Z,4.91
2023-04-08T03:47:16.250Z,4.94
2023-04-08T03:49:42.799Z,4.93
2023-04-08T03:52:09.442Z,4.92
2023-04-08T03:54:36.016Z,4.97
2023-04-08T03:57:02.608Z,5.05
2023-04-08T03:59:29.274Z,5.06
2023-04-08T04:01:56.502Z,5.06
2023-04-08T04:04:24.585Z,5.04
2023-04-08T04:06:51.296Z,5.06
2023-04-08T04:09:17.939Z,5.05
2023-04-08T04:11:44.569Z,5.05
2023-04-08T04:14:11.161Z,5.05
2023-04-08T04:16:37.725Z,5.08
2023-04-08T04:19:04.368Z,5.03
2023-04-08T04:21:31.297Z,5.02
2023-04-08T04:23:57.857Z,5.00
2023-04-08T04:26:24.481Z,4.98
2023-04-08T04:28:51.198Z,4.82
2023-04-08T04:31:23.115Z,4.72
2023-04-08T04:33:49.809Z,4.74
2023-04-08T04:36:16.415Z,4.92
2023-04-08T04:38:43.552Z,5.01
2023-04-08T04:41:10.928Z,5.09
2023-04-08T04:43:37.901Z,5.12
2023-04-08T04:46:07.194Z,5.13
2023-04-08T04:48:34.226Z,5.06
2023-04-08T04:51:03.351Z,4.81
2023-04-08T04:53:33.235Z,4.81
2023-04-08T04:56:01.740Z,4.93
2023-04-08T04:58:29.007Z,5.02
2023-04-08T05:00:56.506Z,5.01
2023-04-08T05:03:23.533Z,4.90
2023-04-08T05:05:54.825Z,4.85
2023-04-08T05:08:22.218Z,5.03
2023-04-08T05:10:50.709Z,5.10
2023-04-08T05:13:18.683Z,5.14
2023-04-08T05:15:48.140Z,5.16
2023-04-08T05:18:14.800Z,5.26
2023-04-08T05:20:44.629Z,5.29
2023-04-08T05:23:11.196Z,5.22
2023-04-08T05:25:37.937Z,5.02
2023-04-08T05:28:04.684Z,4.98
2023-04-08T05:30:31.415Z,5.06
2023-04-08T05:33:00.350Z,5.15
2023-04-08T05:35:28.477Z,5.21
2023-04-08T05:37:55.388Z,5.14
2023-04-08T05:40:22.040Z,5.14
2023-04-08T05:42:48.732Z,5.18
2023-04-08T05:45:16.267Z,5.26
2023-04-08T05:47:42.980Z,5.32
2023-04-08T05:50:11.295Z,5.29
2023-04-08T05:52:38.040Z,5.26
2023-04-08T05:55:06.169Z,5.31
2023-04-08T05:57:32.742Z,5.41
2023-04-08T05:59:59.419Z,5.47
2023-04-08T06:02:26.172Z,5.64
2023-04-08T06:04:52.939Z,5.79
2023-04-08T06:07:19.625Z,5.86
2023-04-08T06:09:46.164Z,5.91
2023-04-08T06:12:12.718Z,5.91
2023-04-08T06:14:39.294Z,6.00
2023-04-08T06:17:06.299Z,6.05
2023-04-08T06:19:32.959Z,6.13
2023-04-08T06:21:59.560Z,6.18
2023-04-08T06:24:27.502Z,6.28
2023-04-08T06:26:54.211Z,6.36
2023-04-08T06:29:24.015Z,6.28
2023-04-08T06:31:51.242Z,6.40
2023-04-08T06:34:17.996Z,6.42
2023-04-08T06:36:44.597Z,6.45
2023-04-08T06:39:11.154Z,6.33
2023-04-08T06:41:37.819Z,6.38
2023-04-08T06:44:04.486Z,6.49
2023-04-08T06:46:31.312Z,6.53
2023-04-08T06:48:57.840Z,6.58
2023-04-08T06:51:24.380Z,6.57
2023-04-08T06:53:50.888Z,6.64
2023-04-08T06:56:17.711Z,6.63
2023-04-08T06:58:44.346Z,6.68
2023-04-08T07:01:11.213Z,6.76
2023-04-08T07:03:38.147Z,6.66
2023-04-08T07:06:05.175Z,6.69
2023-04-08T07:08:31.757Z,6.70
2023-04-08T07:10:58.320Z,6.78
2023-04-08T07:13:24.856Z,6.86
2023-04-08T07:15:52.074Z,6.94
2023-04-08T07:18:18.641Z,7.01
2023-04-08T07:20:45.482Z,6.92
2023-04-08T07:23:12.026Z,6.96
2023-04-08T07:25:38.598Z,7.03
2023-04-08T07:28:05.239Z,7.08
2023-04-08T07:30:31.973Z,7.15
2023-04-08T07:33:00.715Z,7.18
2023-04-08T07:35:27.940Z,7.19
2023-04-08T07:37:55.059Z,7.25
2023-04-08T07:40:21.662Z,7.30
2023-04-08T07:42:48.214Z,7.38
2023-04-08T07:45:15.428Z,7.42
2023-04-08T07:47:42.245Z,7.44
2023-04-08T07:50:09.283Z,7.42
2023-04-08T07:52:35.849Z,7.45
2023-04-08T07:55:02.608Z,7.51
2023-04-08T07:57:29.295Z,7.62
2023-04-08T07:59:56.190Z,7.65
2023-04-08T08:02:23.168Z,7.69
2023-04-08T08:04:50.218Z,7.71
2023-04-08T08:07:16.868Z,7.74
2023-04-08T08:09:43.556Z,7.75
2023-04-08T08:12:10.189Z,7.79
2023-04-08T08:14:36.832Z,7.81
2023-04-08T08:17:04.547Z,7.77
2023-04-08T08:19:31.147Z,7.80
2023-04-08T08:21:58.009Z,7.77
2023-04-08T08:24:25.894Z,7.76
2023-04-08T08:26:52.456Z,7.77
2023-04-08T08:29:19.074Z,7.84
2023-04-08T08:31:45.695Z,7.92
2023-04-08T08:34:12.301Z,7.99
2023-04-08T08:36:38.910Z,7.99
2023-04-08T08:39:05.619Z,7.94
2023-04-08T08:41:36.581Z,7.93
2023-04-08T08:44:07.400Z,8.00
2023-04-08T08:46:34.951Z,8.18
2023-04-08T08:49:02.290Z,8.09
2023-04-08T08:51:30.126Z,8.08
2023-04-08T08:53:56.746Z,8.09
2023-04-08T08:56:23.354Z,8.10
2023-04-08T08:58:49.910Z,8.18
2023-04-08T09:01:41.593Z,8.23
2023-04-08T09:04:18.569Z,8.24
2023-04-08T09:07:11.108Z,8.13
2023-04-08T09:09:59.526Z,8.22
2023-04-08T09:12:31.265Z,8.40
2023-04-08T09:15:10.037Z,8.42
2023-04-08T09:17:41.331Z,8.48
2023-04-08T09:20:13.449Z,8.54
2023-04-08T09:23:02.346Z,8.42
2023-04-08T09:25:34.029Z,8.47
2023-04-08T09:28:02.126Z,8.46
2023-04-08T09:30:28.964Z,8.54
2023-04-08T09:32:57.847Z,8.58
2023-04-08T09:35:25.921Z,8.67
2023-04-08T09:37:52.827Z,8.76
2023-04-08T09:40:19.647Z,8.81
2023-04-08T09:42:54.104Z,8.85
2023-04-08T09:45:21.928Z,8.92
2023-04-08T09:48:08.481Z,8.94
2023-04-08T09:50:44.004Z,9.01
2023-04-08T09:53:18.848Z,9.09
2023-04-08T09:55:53.247Z,9.02
2023-04-08T09:58:28.476Z,9.14
2023-04-08T10:00:55.845Z,9.26
2023-04-08T10:03:49.080Z,9.36
2023-04-08T10:06:17.125Z,9.59
2023-04-08T10:08:45.172Z,9.71
2023-04-08T10:11:12.054Z,9.71
2023-04-08T10:13:38.868Z,9.73
2023-04-08T10:16:27.136Z,9.59
2023-04-08T10:18:57.379Z,9.69
2023-04-08T10:21:48.491Z,9.62
2023-04-08T10:24:15.063Z,9.70
2023-04-08T10:26:44.532Z,9.69
2023-04-08T10:29:21.217Z,9.61
2023-04-08T10:31:50.688Z,9.71
2023-04-08T10:34:22.952Z,9.81
2023-04-08T10:36:49.939Z,9.85
2023-04-08T10:39:17.303Z,9.93
2023-04-08T10:41:45.891Z,10.00
2023-04-08T10:44:22.406Z,9.97
2023-04-08T10:46:51.458Z,9.97
2023-04-08T10:49:18.802Z,9.86
2023-04-08T10:51:46.992Z,9.83
2023-04-08T10:54:18.469Z,9.79
2023-04-08T10:56:51.366Z,9.97
2023-04-08T10:59:29.762Z,10.10
2023-04-08T11:01:56.533Z,10.25
2023-04-08T11:04:26.367Z,10.28
2023-04-08T11:06:53.724Z,10.31
2023-04-08T11:09:20.488Z,10.37
2023-04-08T11:11:47.417Z,10.08
2023-04-08T11:14:14.485Z,9.90
2023-04-08T11:16:41.508Z,9.99
2023-04-08T11:19:08.880Z,10.08
2023-04-08T11:21:37.506Z,10.17
2023-04-08T11:24:16.383Z,10.13
2023-04-08T11:26:43.499Z,10.40
2023-04-08T11:29:14.235Z,10.39
2023-04-08T11:31:43.864Z,10.67
2023-04-08T11:34:10.796Z,10.82
2023-04-08T11:36:41.517Z,10.98
2023-04-08T11:39:10.601Z,10.95
2023-04-08T11:41:41.347Z,11.03
2023-04-08T11:44:08.983Z,11.16
2023-04-08T11:46:36.586Z,10.95
2023-04-08T11:49:08.932Z,11.04
2023-04-08T11:51:54.985Z,11.13
2023-04-08T11:54:32.284Z,11.05
2023-04-08T11:56:59.611Z,11.32
2023-04-08T11:59:28.950Z,11.18
2023-04-08T12:01:56.462Z,11.06
2023-04-08T12:04:23.264Z,10.95
2023-04-08T12:06:50.032Z,10.88
2023-04-08T12:09:16.629Z,11.00
2023-04-08T12:11:43.274Z,11.19
2023-04-08T12:14:09.985Z,11.02
2023-04-08T12:16:36.692Z,11.09
2023-04-08T12:19:03.413Z,11.26
2023-04-08T12:21:29.978Z,11.51
2023-04-08T12:23:56.785Z,11.69
2023-04-08T12:26:24.237Z,11.94
2023-04-08T12:28:51.050Z,12.10
2023-04-08T12:31:17.643Z,12.12
2023-04-08T12:33:44.374Z,12.25
2023-04-08T12:36:13.426Z,12.36
2023-04-08T12:38:40.336Z,12.27
2023-04-08T12:41:07.649Z,12.30
2023-04-08T12:43:34.552Z,12.05
2023-04-08T12:46:01.958Z,11.97
2023-04-08T12:48:28.517Z,12.10
2023-04-08T12:50:55.076Z,12.37
2023-04-08T12:53:21.740Z,11.99
2023-04-08T12:55:49.204Z,12.06
2023-04-08T12:58:16.920Z,12.08
2023-04-08T13:00:46.542Z,12.28
2023-04-08T13:03:15.861Z,12.39
2023-04-08T13:05:43.880Z,12.59
2023-04-08T13:08:14.488Z,12.72
2023-04-08T13:10:42.593Z,12.98
2023-04-08T13:13:09.188Z,12.71
2023-04-08T13:15:35.823Z,12.87
2023-04-08T13:18:02.564Z,13.14
2023-04-08T13:20:29.220Z,13.26
2023-04-08T13:22:56.091Z,13.35
2023-04-08T13:25:22.789Z,13.31
2023-04-08T13:27:49.340Z,13.44
2023-04-08T13:30:16.463Z,13.61
2023-04-08T13:32:43.376Z,13.66
2023-04-08T13:35:10.118Z,13.65
2023-04-08T13:37:36.993Z,13.69
2023-04-08T13:40:04.765Z,13.66
2023-04-08T13:42:31.552Z,13.69
2023-04-08T13:44:58.311Z,13.74
2023-04-08T13:47:25.136Z,13.86
2023-04-08T13:49:51.911Z,13.97
2023-04-08T13:52:18.574Z,13.99
2023-04-08T13:54:45.178Z,13.92
2023-04-08T13:57:12.126Z,14.00
2023-04-08T13:59:38.719Z,14.04
2023-04-08T14:02:05.981Z,14.05
2023-04-08T14:04:32.910Z,14.08
2023-04-08T14:06:59.518Z,14.05
2023-04-08T14:09:26.116Z,13.93
2023-04-08T14:11:52.689Z,13.79
2023-04-08T14:14:19.306Z,13.68
2023-04-08T14:16:46.289Z,13.64
2023-04-08T14:19:13.630Z,13.59
2023-04-08T14:21:40.463Z,13.48
2023-04-08T14:24:08.148Z,13.56
2023-04-08T14:26:36.027Z,13.50
2023-04-08T14:29:05.049Z,13.51
2023-04-08T14:31:33.320Z,13.54
2023-04-08T14:34:00.944Z,13.49
2023-04-08T14:36:28.452Z,13.69
2023-04-08T14:38:55.899Z,13.46
2023-04-08T14:41:22.618Z,13.38
2023-04-08T14:43:49.545Z,13.45
2023-04-08T14:46:16.737Z,13.44
2023-04-08T14:48:43.400Z,13.30
2023-04-08T14:51:10.280Z,13.22
2023-04-08T14:53:36.943Z,13.29
2023-04-08T14:56:04.207Z,13.33
2023-04-08T14:58:31.076Z,13.22
2023-04-08T15:00:57.677Z,13.20
2023-04-08T15:03:24.400Z,13.33
2023-04-08T15:05:51.032Z,13.44
2023-04-08T15:08:17.759Z,13.51
2023-04-08T15:10:44.410Z,13.44
2023-04-08T15:13:11.191Z,13.40
2023-04-08T15:15:37.857Z,13.41
2023-04-08T15:18:04.476Z,13.29
2023-04-08T15:20:31.135Z,13.27
2023-04-08T15:22:57.705Z,13.16
2023-04-08T15:25:24.367Z,13.16
2023-04-08T15:27:50.976Z,13.18
2023-04-08T15:30:24.062Z,13.21
2023-04-08T15:32:52.249Z,13.31
2023-04-08T15:35:19.325Z,13.42
2023-04-08T15:37:46.032Z,13.50
2023-04-08T15:40:12.875Z,13.59
2023-04-08T15:42:39.529Z,13.61
2023-04-08T15:45:06.721Z,13.47
2023-04-08T15:47:35.159Z,13.47
2023-04-08T15:50:01.853Z,13.42
2023-04-08T15:52:28.487Z,13.33
2023-04-08T15:54:55.061Z,13.25
2023-04-08T15:57:26.390Z,13.26
2023-04-08T15:59:53.594Z,13.25
2023-04-08T16:02:20.611Z,13.35
2023-04-08T16:04:56.918Z,13.33
2023-04-08T16:07:23.478Z,13.45
2023-04-08T16:09:50.291Z,13.51
2023-04-08T16:12:16.844Z,13.56
2023-04-08T16:14:43.454Z,13.40
2023-04-08T16:17:10.088Z,12.93
2023-04-08T16:19:36.631Z,12.60
2023-04-08T16:22:03.420Z,12.66
2023-04-08T16:24:30.033Z,12.74
2023-04-08T16:26:57.702Z,12.64
2023-04-08T16:29:24.496Z,12.79
2023-04-08T16:31:53.175Z,12.84
2023-04-08T16:34:21.428Z,12.87
2023-04-08T16:36:48.072Z,12.96
2023-04-08T16:39:14.635Z,13.08
2023-04-08T16:41:41.283Z,13.17
2023-04-08T16:44:07.859Z,13.10
2023-04-08T16:46:34.431Z,13.03
2023-04-08T16:49:01.222Z,12.85
2023-04-08T16:51:28.439Z,12.69
2023-04-08T16:53:57.125Z,12.65
2023-04-08T16:56:25.178Z,12.50
2023-04-08T16:58:52.406Z,12.35
2023-04-08T17:01:19.726Z,12.17
2023-04-08T17:03:47.972Z,12.22
2023-04-08T17:06:14.704Z,12.25
2023-04-08T17:08:44.271Z,12.35
2023-04-08T17:11:14.338Z,12.32
2023-04-08T17:13:42.971Z,12.40
2023-04-08T17:16:15.679Z,12.09
2023-04-08T17:18:43.316Z,11.79
2023-04-08T17:21:10.679Z,11.86
2023-04-08T17:23:37.343Z,11.92
2023-04-08T17:26:10.042Z,11.96
2023-04-08T17:28:36.693Z,11.94
2023-04-08T17:31:03.593Z,11.86
2023-04-08T17:33:30.279Z,11.76
2023-04-08T17:35:57.006Z,11.77
2023-04-08T17:38:23.675Z,11.76
2023-04-08T17:40:50.938Z,11.83
2023-04-08T17:43:18.060Z,11.89
2023-04-08T17:45:45.027Z,11.89
2023-04-08T17:48:11.726Z,11.78
2023-04-08T17:50:38.354Z,11.75
2023-04-08T17:53:04.905Z,11.75
2023-04-08T17:55:31.459Z,11.57
2023-04-08T17:57:58.060Z,11.57
2023-04-08T18:00:26.198Z,11.45
2023-04-08T18:02:52.945Z,11.45
2023-04-08T18:05:20.202Z,11.46
2023-04-08T18:07:46.851Z,11.41
2023-04-08T18:10:13.603Z,11.33
2023-04-08T18:12:40.313Z,11.31
2023-04-08T18:15:07.682Z,11.28
2023-04-08T18:17:34.810Z,11.14
2023-04-08T18:20:01.483Z,11.00
2023-04-08T18:22:28.036Z,10.81
2023-04-08T18:24:54.645Z,10.76
2023-04-08T18:27:21.321Z,10.74
2023-04-08T18:29:48.078Z,10.69
2023-04-08T18:32:14.645Z,10.60
2023-04-08T18:34:41.664Z,10.51
2023-04-08T18:37:08.360Z,10.33
2023-04-08T18:39:34.964Z,10.24
2023-04-08T18:42:01.540Z,10.11
2023-04-08T18:44:28.609Z,9.90
2023-04-08T18:46:56.367Z,9.75
2023-04-08T18:49:23.312Z,9.68
2023-04-08T18:52:01.258Z,9.66
2023-04-08T18:54:28.919Z,9.43
2023-04-08T18:56:55.500Z,9.29
2023-04-08T18:59:23.311Z,9.21
2023-04-08T19:01:50.642Z,9.06
2023-04-08T19:04:18.158Z,8.91
2023-04-08T19:06:44.874Z,8.69
2023-04-08T19:09:11.560Z,8.60
2023-04-08T19:11:38.152Z,8.57
2023-04-08T19:14:04.869Z,8.45
2023-04-08T19:16:31.545Z,8.51
2023-04-08T19:18:58.190Z,8.45
2023-04-08T19:21:24.910Z,8.38
2023-04-08T19:23:51.637Z,8.34
2023-04-08T19:26:18.479Z,8.29
2023-04-08T19:28:46.134Z,8.16
2023-04-08T19:31:20.589Z,7.94
2023-04-08T19:33:47.767Z,8.01
2023-04-08T19:36:14.546Z,7.93
2023-04-08T19:38:41.429Z,7.76
2023-04-08T19:41:08.081Z,7.62
2023-04-08T19:43:34.674Z,7.55
2023-04-08T19:46:02.459Z,7.51
2023-04-08T19:48:29.383Z,7.44
2023-04-08T19:50:56.251Z,7.36
2023-04-08T19:53:22.838Z,7.32
2023-04-08T19:55:49.611Z,7.24
2023-04-08T19:58:16.611Z,7.08
2023-04-08T20:00:43.210Z,6.91
2023-04-08T20:03:10.134Z,6.84
2023-04-08T20:05:37.340Z,6.89
2023-04-08T20:08:03.987Z,6.89
2023-04-08T20:10:30.679Z,6.85
2023-04-08T20:12:57.332Z,6.78
2023-04-08T20:15:25.395Z,6.87
2023-04-08T20:17:53.292Z,6.91
2023-04-08T20:20:20.485Z,6.75
2023-04-08T20:22:47.150Z,6.64
2023-04-08T20:25:13.855Z,6.55
2023-04-08T20:27:41.317Z,6.46
2023-04-08T20:30:09.182Z,6.43
2023-04-08T20:32:36.302Z,6.42
2023-04-08T20:35:04.737Z,6.42
2023-04-08T20:37:33.187Z,6.52
2023-04-08T20:39:59.854Z,6.50
2023-04-08T20:42:26.624Z,6.41
2023-04-08T20:44:53.728Z,6.45
2023-04-08T20:47:20.838Z,6.48
2023-04-08T20:49:48.210Z,6.57
2023-04-08T20:52:14.779Z,6.57
2023-04-08T20:54:41.407Z,6.63
2023-04-08T20:57:08.035Z,6.69
2023-04-08T20:59:34.591Z,6.65
2023-04-08T21:02:01.326Z,6.65
2023-04-08T21:04:28.331Z,6.57
2023-04-08T21:06:54.960Z,6.46
2023-04-08T21:09:21.538Z,6.36
2023-04-08T21:11:48.125Z,6.33
2023-04-08T21:14:14.721Z,6.44
2023-04-08T21:16:41.404Z,6.63
2023-04-08T21:19:08.033Z,6.65
2023-04-08T21:21:34.568Z,6.71
2023-04-08T21:24:01.175Z,6.79
2023-04-08T21:26:27.750Z,6.85
2023-04-08T21:28:54.493Z,6.87
2023-04-08T21:31:21.152Z,6.95
2023-04-08T21:33:47.798Z,7.01
2023-04-08T21:36:14.657Z,7.04
2023-04-08T21:38:42.138Z,7.05
2023-04-08T21:41:08.843Z,7.13
2023-04-08T21:43:35.463Z,7.14
2023-04-08T21:46:02.108Z,7.17
2023-04-08T21:48:28.963Z,7.21
2023-04-08T21:50:55.786Z,7.24
2023-04-08T21:53:23.790Z,7.30
2023-04-08T21:55:50.392Z,7.29
2023-04-08T21:58:17.193Z,7.29
2023-04-08T22:00:44.686Z,7.23
2023-04-08T22:03:11.462Z,7.09
2023-04-08T22:05:38.241Z,7.04
2023-04-08T22:08:05.369Z,7.07
2023-04-08T22:10:31.979Z,7.18
2023-04-08T22:12:58.591Z,7.22
2023-04-08T22:15:25.381Z,7.27
2023-04-08T22:17:53.059Z,7.25
2023-04-08T22:20:19.790Z,7.21
2023-04-08T22:22:46.403Z,7.24
2023-04-08T22:25:13.026Z,7.26
2023-04-08T22:27:39.664Z,7.36
2023-04-08T22:30:07.301Z,7.36
2023-04-08T22:32:33.901Z,7.23
2023-04-08T22:35:00.488Z,7.28
2023-04-08T22:37:27.095Z,7.27
2023-04-08T22:39:53.671Z,7.30
2023-04-08T22:42:20.748Z,7.38
2023-04-08T22:44:47.274Z,7.47
2023-04-08T22:47:13.854Z,7.58
2023-04-08T22:49:42.578Z,7.64
2023-04-08T22:52:09.291Z,7.68
2023-04-08T22:54:36.363Z,7.67
2023-04-08T22:57:03.355Z,7.58
2023-04-08T22:59:29.931Z,7.60
2023-04-08T23:01:56.664Z,7.54
2023-04-08T23:04:23.273Z,7.54
2023-04-08T23:06:49.866Z,7.54
2023-04-08T23:09:16.522Z,7.52
2023-04-08T23:11:43.095Z,7.44
2023-04-08T23:14:10.990Z,7.36
2023-04-08T23:16:37.552Z,7.38
2023-04-08T23:19:04.132Z,7.47
2023-04-08T23:21:31.193Z,7.40
2023-04-08T23:23:57.791Z,7.41
2023-04-08T23:26:25.296Z,7.49
2023-04-08T23:28:52.139Z,7.52
2023-04-08T23:31:19.195Z,7.40
2023-04-08T23:33:45.837Z,7.43
2023-04-08T23:36:12.828Z,7.40
2023-04-08T23:38:39.568Z,7.41
2023-04-08T23:41:07.972Z,7.34
2023-04-08T23:43:35.945Z,7.23
2023-04-08T23:46:02.634Z,7.16
2023-04-08T23:48:29.175Z,7.06
2023-04-08T23:50:56.072Z,7.03
2023-04-08T23:53:23.100Z,7.05
2023-04-08T23:55:49.698Z,7.06
2023-04-08T23:58:16.420Z,7.02
